Time;durP1;ratioP1;P1;durP2;ratioP2;P2;SDS_P1;SDS_P2;PMS_P1;PMS_P2;Temp;Humidity;BMP_temperature;BMP_pressure;BME280_temperature;BME280_humidity;BME280_pressure;Samples;Min_cycle;Max_cycle;Signal;HPM_P1;HPM_P2
2022/03/10 00:01:54;;;;;;;6.70;3.63;;;-9.90;59.10;;;;;;5099807;28;20066;-86
2022/03/10 00:04:20;;;;;;;6.15;3.20;;;-9.90;58.70;;;;;;5098060;28;20078;-87
2022/03/10 00:06:46;;;;;;;3.65;2.47;;;-9.90;58.60;;;;;;5096103;28;20020;-86
2022/03/10 00:09:12;;;;;;;7.82;3.20;;;-9.90;58.60;;;;;;5075379;28;20584;-85
2022/03/10 00:11:38;;;;;;;3.05;1.95;;;-9.90;58.60;;;;;;5076030;28;20028;-84
2022/03/10 00:14:04;;;;;;;3.63;2.78;;;-9.90;58.50;;;;;;5084885;28;20048;-83
2022/03/10 00:16:30;;;;;;;4.75;3.13;;;-9.90;58.60;;;;;;5095483;28;20024;-81
2022/03/10 00:18:55;;;;;;;7.32;3.58;;;-9.90;58.60;;;;;;5095855;28;20040;-83
2022/03/10 00:21:21;;;;;;;8.55;3.80;;;-9.90;58.60;;;;;;5086828;28;20481;-83
2022/03/10 00:23:47;;;;;;;4.80;3.13;;;-9.90;58.60;;;;;;5076528;28;20051;-84
2022/03/10 00:26:25;;;;;;;4.55;3.20;;;-9.90;58.60;;;;;;5085781;28;20024;-86
2022/03/10 00:28:50;;;;;;;6.40;3.20;;;-9.90;58.60;;;;;;5066092;28;20032;-86
2022/03/10 00:31:16;;;;;;;5.53;3.00;;;-9.90;58.60;;;;;;5079315;28;20052;-84
2022/03/10 00:33:42;;;;;;;6.75;3.42;;;-9.90;58.50;;;;;;5091623;28;20089;-76
2022/03/10 00:36:08;;;;;;;9.05;4.25;;;-9.90;58.50;;;;;;5092420;28;20028;-77
2022/03/10 00:38:34;;;;;;;4.97;3.15;;;-9.90;58.60;;;;;;5094587;28;20039;-77
2022/03/10 00:40:59;;;;;;;8.55;3.53;;;-9.90;59.40;;;;;;5095455;28;20028;-78
2022/03/10 00:43:26;;;;;;;11.85;4.10;;;-9.90;58.80;;;;;;5095566;28;20028;-78
2022/03/10 00:45:52;;;;;;;6.00;3.55;;;-10.00;58.70;;;;;;5095429;28;20031;-78
2022/03/10 00:48:18;;;;;;;10.10;4.72;;;-10.00;58.60;;;;;;5095467;28;20055;-78
2022/03/10 00:50:44;;;;;;;7.55;4.32;;;-10.10;58.60;;;;;;5095136;28;20419;-77
2022/03/10 00:53:11;;;;;;;5.68;3.92;;;-10.10;58.70;;;;;;5073071;28;20036;-77
2022/03/10 00:55:37;;;;;;;7.75;4.25;;;-10.10;58.80;;;;;;5074977;28;20111;-77
2022/03/10 00:58:03;;;;;;;5.53;3.72;;;-10.20;58.70;;;;;;5085242;28;20137;-79
2022/03/10 01:00:29;;;;;;;3.30;2.25;;;-10.20;58.70;;;;;;5076921;28;20489;-78
2022/03/10 01:02:56;;;;;;;4.93;3.17;;;-10.20;58.80;;;;;;5095365;28;20031;-77
2022/03/10 01:05:22;;;;;;;6.82;3.63;;;-10.20;58.90;;;;;;5095253;28;20031;-78
2022/03/10 01:07:48;;;;;;;6.57;4.35;;;-10.20;58.80;;;;;;5095503;28;20441;-77
2022/03/10 01:10:15;;;;;;;5.72;3.47;;;-10.20;58.90;;;;;;5084156;28;20083;-77
2022/03/10 01:12:42;;;;;;;;;;;-10.20;58.90;;;;;;5057312;28;20366;-78
2022/03/10 01:15:12;;;;;;;5.43;3.90;;;-10.30;58.90;;;;;;5094638;28;19904;-76
2022/03/10 01:17:38;;;;;;;8.10;3.45;;;-10.30;58.80;;;;;;5095860;28;20044;-77
2022/03/10 01:20:05;;;;;;;7.32;3.97;;;-10.40;58.90;;;;;;5095395;28;20501;-77
2022/03/10 01:22:31;;;;;;;8.63;4.63;;;-10.40;59.10;;;;;;5095342;28;20069;-78
2022/03/10 01:24:57;;;;;;;4.35;3.47;;;-10.40;59.10;;;;;;5094374;28;20024;-78
2022/03/10 01:27:23;;;;;;;9.15;3.95;;;-10.40;59.60;;;;;;5076765;28;20480;-79
2022/03/10 01:29:48;;;;;;;6.97;3.85;;;-10.40;59.60;;;;;;5094741;28;20024;-78
2022/03/10 01:32:15;;;;;;;9.05;4.35;;;-10.40;59.70;;;;;;5094581;28;20016;-78
2022/03/10 01:34:41;;;;;;;3.83;2.60;;;-10.40;59.80;;;;;;5094507;28;20024;-77
2022/03/10 01:37:07;;;;;;;5.50;2.95;;;-10.40;59.70;;;;;;5094408;28;20024;-78
2022/03/10 01:39:32;;;;;;;8.65;4.78;;;-10.50;59.70;;;;;;5076112;28;20031;-76
2022/03/10 01:41:59;;;;;;;5.40;3.30;;;-10.50;59.80;;;;;;5087376;28;20139;-77
2022/03/10 01:44:25;;;;;;;9.75;5.32;;;-10.60;59.70;;;;;;5074971;28;20143;-78
2022/03/10 01:46:51;;;;;;;9.07;4.97;;;-10.60;59.90;;;;;;5074517;28;20386;-78
2022/03/10 01:49:17;;;;;;;3.67;3.35;;;-10.70;60.00;;;;;;5079455;28;20383;-77
2022/03/10 01:51:43;;;;;;;5.20;3.75;;;-10.70;60.00;;;;;;5083123;28;20028;-77
2022/03/10 01:54:09;;;;;;;8.33;4.70;;;-10.60;60.00;;;;;;5075474;28;20020;-77
2022/03/10 01:56:35;;;;;;;7.33;4.60;;;-10.70;60.00;;;;;;5075308;28;20017;-77
2022/03/10 01:59:03;;;;;;;8.13;4.38;;;-10.70;60.00;;;;;;5074587;28;20037;-78
2022/03/10 02:01:29;;;;;;;9.52;3.58;;;-10.70;60.10;;;;;;5056061;28;20071;-78
2022/03/10 02:03:57;;;;;;;7.40;4.07;;;-10.70;60.30;;;;;;5074030;28;20029;-76
2022/03/10 02:06:24;;;;;;;6.57;3.60;;;-10.70;60.30;;;;;;5075363;28;20107;-78
2022/03/10 02:11:36;;;;;;;9.65;4.63;;;-10.70;60.50;;;;;;5076665;28;20401;-77
2022/03/10 02:17:19;;;;;;;7.35;3.88;;;-10.70;60.40;;;;;;5094459;28;20479;-79
2022/03/10 02:19:32;;;;;;;7.43;4.32;;;-10.80;60.30;;;;;;5073578;28;20031;-77
2022/03/10 02:22:09;;;;;;;5.80;3.60;;;-10.90;60.30;;;;;;5072046;28;20032;-78
2022/03/10 02:24:40;;;;;;;7.50;4.35;;;-10.90;60.40;;;;;;5073452;28;20115;-78
2022/03/10 02:27:19;;;;;;;9.15;4.28;;;-10.90;60.60;;;;;;5073071;28;20481;-77
2022/03/10 02:29:53;;;;;;;7.47;4.95;;;-10.90;60.70;;;;;;5073248;28;20059;-76
2022/03/10 02:32:20;;;;;;;6.53;3.92;;;-10.90;60.80;;;;;;5055466;28;20523;-77
2022/03/10 02:34:47;;;;;;;8.38;4.32;;;-10.90;60.70;;;;;;5073164;28;20028;-77
2022/03/10 02:37:13;;;;;;;;;;;-11.00;60.80;;;;;;5073613;28;20428;-76
2022/03/10 02:39:40;;;;;;;9.63;5.00;;;-10.90;60.80;;;;;;5072959;28;19915;-77
2022/03/10 02:42:06;;;;;;;7.60;4.53;;;-11.00;60.60;;;;;;5072813;28;20051;-77
2022/03/10 02:44:33;;;;;;;7.70;4.68;;;-11.00;60.70;;;;;;5072485;28;20025;-77
2022/03/10 02:46:58;;;;;;;8.10;4.10;;;-11.00;60.70;;;;;;5072716;28;20038;-78
2022/03/10 02:49:24;;;;;;;5.85;4.05;;;-11.00;60.80;;;;;;5055061;28;20021;-78
2022/03/10 02:51:51;;;;;;;9.45;4.28;;;-11.00;61.00;;;;;;5072750;28;20077;-77
2022/03/10 02:54:17;;;;;;;6.00;3.23;;;-11.00;61.00;;;;;;5072931;28;20052;-78
2022/03/10 02:56:43;;;;;;;6.82;4.30;;;-11.00;61.00;;;;;;5073209;28;20545;-76
2022/03/10 02:59:10;;;;;;;8.53;4.73;;;-11.00;61.10;;;;;;5090710;28;20085;-77
2022/03/10 03:01:36;;;;;;;4.78;3.42;;;-11.00;61.00;;;;;;5092452;28;20036;-78
2022/03/10 03:04:03;;;;;;;6.13;4.73;;;-11.00;61.00;;;;;;5098266;28;20035;-77
2022/03/10 03:06:29;;;;;;;7.00;3.47;;;-11.00;61.10;;;;;;5094020;28;20277;-78
2022/03/10 03:08:55;;;;;;;10.50;4.85;;;-11.00;61.00;;;;;;5093993;28;20064;-77
2022/03/10 03:11:21;;;;;;;8.57;3.90;;;-11.00;61.10;;;;;;5092914;28;20042;-78
2022/03/10 03:13:47;;;;;;;12.50;5.95;;;-11.00;61.00;;;;;;5092696;28;20429;-76
2022/03/10 03:16:13;;;;;;;8.77;5.95;;;-11.00;61.20;;;;;;5074319;28;20024;-77
2022/03/10 03:18:39;;;;;;;7.95;3.72;;;-11.00;61.00;;;;;;5085198;28;20509;-78
2022/03/10 03:21:04;;;;;;;8.13;3.85;;;-11.00;61.00;;;;;;5072394;28;20047;-77
2022/03/10 03:23:30;;;;;;;5.68;4.00;;;-11.00;60.90;;;;;;5072270;28;20478;-76
2022/03/10 03:25:56;;;;;;;5.85;4.07;;;-11.00;60.90;;;;;;5072401;28;20386;-76
2022/03/10 03:28:22;;;;;;;2.25;2.00;;;-11.10;60.80;;;;;;5073067;28;20035;-78
2022/03/10 03:30:48;;;;;;;14.45;6.32;;;-11.10;61.20;;;;;;5072352;28;20063;-76
2022/03/10 03:33:15;;;;;;;6.97;5.03;;;-11.10;61.30;;;;;;5072141;28;20382;-77
2022/03/10 03:35:41;;;;;;;9.03;4.50;;;-11.10;61.40;;;;;;5054056;28;20037;-76
2022/03/10 03:38:07;;;;;;;6.70;2.28;;;-11.10;61.90;;;;;;5071857;28;20686;-76
2022/03/10 03:40:33;;;;;;;2.88;2.58;;;-11.20;62.10;;;;;;5071738;28;20020;-77
2022/03/10 03:43:00;;;;;;;5.70;4.00;;;-11.20;61.90;;;;;;5068521;28;20031;-75
2022/03/10 03:45:26;;;;;;;6.95;4.15;;;-11.20;62.40;;;;;;5092133;28;20484;-77
2022/03/10 03:47:53;;;;;;;7.32;4.10;;;-11.20;62.60;;;;;;5091993;28;20024;-77
2022/03/10 03:50:19;;;;;;;10.23;5.72;;;-11.20;62.30;;;;;;5092113;28;20030;-78
2022/03/10 03:52:45;;;;;;;10.23;5.35;;;-11.20;62.80;;;;;;5092183;28;20446;-78
2022/03/10 03:55:11;;;;;;;11.00;5.00;;;-11.20;62.90;;;;;;5092006;28;20470;-77
2022/03/10 03:57:37;;;;;;;11.77;5.80;;;-11.20;62.60;;;;;;5072963;28;20077;-80
2022/03/10 04:00:05;;;;;;;11.73;4.47;;;-11.20;62.50;;;;;;5074164;28;20027;-78
2022/03/10 04:02:31;;;;;;;19.17;7.20;;;-11.30;62.80;;;;;;5092451;28;20060;-77
2022/03/10 04:04:57;;;;;;;17.58;7.38;;;-11.30;63.00;;;;;;5075398;28;20055;-76
2022/03/10 04:07:23;;;;;;;5.15;4.05;;;-11.20;63.20;;;;;;5087267;28;20021;-77
2022/03/10 04:09:49;;;;;;;9.00;5.10;;;-11.20;63.50;;;;;;5083597;28;20051;-76
2022/03/10 04:12:15;;;;;;;14.57;7.90;;;-11.30;63.00;;;;;;5110069;28;20038;-78
2022/03/10 04:14:40;;;;;;;5.75;3.70;;;-11.20;63.60;;;;;;5095694;28;20040;-76
2022/03/10 04:17:06;;;;;;;5.68;4.72;;;-11.20;63.80;;;;;;5099767;28;20032;-77
2022/03/10 04:19:32;;;;;;;7.10;4.63;;;-11.20;63.20;;;;;;5082745;28;20074;-78
2022/03/10 04:21:58;;;;;;;9.05;4.85;;;-11.20;62.90;;;;;;5098264;28;20126;-77
2022/03/10 04:24:24;;;;;;;6.65;4.47;;;-11.30;62.80;;;;;;5096134;28;20039;-78
2022/03/10 04:26:50;;;;;;;6.75;4.15;;;-11.20;62.70;;;;;;5095973;28;20024;-78
2022/03/10 04:29:16;;;;;;;6.43;5.10;;;-11.30;62.40;;;;;;5087222;28;20020;-77
2022/03/10 04:31:42;;;;;;;6.60;5.63;;;-11.20;62.60;;;;;;5057549;28;20477;-77
2022/03/10 04:34:09;;;;;;;4.85;2.67;;;-11.20;62.70;;;;;;5075948;28;20440;-78
2022/03/10 04:36:35;;;;;;;5.85;3.60;;;-11.20;62.80;;;;;;5058917;28;20082;-77
2022/03/10 04:39:02;;;;;;;7.03;5.47;;;-11.30;62.60;;;;;;5075367;28;20124;-77
2022/03/10 04:41:28;;;;;;;3.50;2.75;;;-11.30;63.20;;;;;;5075507;28;20553;-77
2022/03/10 04:43:53;;;;;;;6.25;4.40;;;-11.30;62.90;;;;;;5075038;28;20107;-78
2022/03/10 04:46:19;;;;;;;6.18;3.92;;;-11.30;63.90;;;;;;5085930;28;20428;-76
2022/03/10 04:48:45;;;;;;;9.75;6.13;;;-11.30;64.80;;;;;;5095408;28;20394;-75
2022/03/10 04:51:11;;;;;;;18.35;7.75;;;-11.30;63.70;;;;;;5095878;28;20130;-76
2022/03/10 04:53:36;;;;;;;10.73;4.50;;;-11.30;63.70;;;;;;5096163;28;20016;-78
2022/03/10 04:56:02;;;;;;;11.88;5.45;;;-11.30;64.40;;;;;;5078165;28;20111;-76
2022/03/10 04:58:28;;;;;;;4.13;3.30;;;-11.20;64.40;;;;;;5076978;28;20504;-77
2022/03/10 05:00:54;;;;;;;6.55;3.15;;;-11.20;64.30;;;;;;5076019;28;20027;-79
2022/03/10 05:03:20;;;;;;;9.38;5.07;;;-11.20;64.10;;;;;;5095947;28;20027;-78
2022/03/10 05:05:47;;;;;;;6.68;3.33;;;-11.10;64.00;;;;;;5095248;28;20032;-77
2022/03/10 05:08:13;;;;;;;10.90;4.85;;;-11.10;63.60;;;;;;5095426;28;20024;-78
2022/03/10 05:10:39;;;;;;;6.50;3.25;;;-11.10;63.10;;;;;;5095257;28;20035;-76
2022/03/10 05:13:05;;;;;;;9.35;4.70;;;-11.10;62.80;;;;;;5095395;28;20029;-78
2022/03/10 05:15:31;;;;;;;7.32;4.32;;;-11.00;62.90;;;;;;5094972;28;20385;-77
2022/03/10 05:17:59;;;;;;;8.57;5.00;;;-11.00;63.00;;;;;;5082205;28;20047;-78
2022/03/10 05:20:25;;;;;;;7.40;3.75;;;-10.90;62.60;;;;;;5074565;28;20470;-80
2022/03/10 05:22:57;;;;;;;6.75;4.30;;;-10.90;62.30;;;;;;5092739;28;20039;-78
2022/03/10 05:25:25;;;;;;;4.18;3.05;;;-10.90;62.00;;;;;;5094823;28;20085;-79
2022/03/10 05:27:52;;;;;;;5.00;3.13;;;-10.80;62.10;;;;;;5095347;28;20027;-79
2022/03/10 05:30:20;;;;;;;8.13;4.05;;;-10.80;62.70;;;;;;5095723;28;20425;-78
2022/03/10 05:32:46;;;;;;;7.80;4.45;;;-10.70;62.30;;;;;;5076561;28;20040;-77
2022/03/10 05:35:14;;;;;;;6.30;3.85;;;-10.70;62.00;;;;;;5095158;28;20020;-77
2022/03/10 05:37:41;;;;;;;5.50;4.45;;;-10.70;62.00;;;;;;5094134;28;20096;-77
2022/03/10 05:40:12;;;;;;;10.30;5.63;;;-10.60;61.70;;;;;;5075245;28;20537;-79
2022/03/10 05:42:39;;;;;;;12.10;4.50;;;-10.60;61.60;;;;;;5094491;28;20077;-78
2022/03/10 05:45:07;;;;;;;10.63;4.53;;;-10.50;61.40;;;;;;5091430;28;20071;-78
2022/03/10 05:47:34;;;;;;;12.35;5.25;;;-10.50;61.20;;;;;;5094823;28;20028;-79
2022/03/10 05:50:03;;;;;;;8.85;4.07;;;-10.40;61.00;;;;;;5095137;28;20385;-80
2022/03/10 05:52:29;;;;;;;10.80;5.45;;;-10.30;60.80;;;;;;5094564;28;20039;-80
2022/03/10 05:54:55;;;;;;;9.48;5.03;;;-10.20;60.60;;;;;;5093304;28;20062;-78
2022/03/10 05:57:21;;;;;;;8.57;4.93;;;-10.10;60.50;;;;;;5076322;28;20484;-76
2022/03/10 05:59:47;;;;;;;9.55;4.22;;;-10.00;60.30;;;;;;5093903;28;20146;-78
2022/03/10 06:02:14;;;;;;;13.98;5.38;;;-10.00;60.10;;;;;;5051441;28;20045;-80
2022/03/10 06:04:40;;;;;;;11.13;6.20;;;-9.90;59.80;;;;;;5051579;28;20067;-79
2022/03/10 06:07:06;;;;;;;15.05;6.80;;;-9.90;59.40;;;;;;5050318;28;20032;-79
2022/03/10 06:09:32;;;;;;;9.43;3.70;;;-9.80;59.40;;;;;;5051338;28;20036;-79
2022/03/10 06:11:58;;;;;;;9.93;4.75;;;-9.70;59.60;;;;;;5050523;28;20044;-77
2022/03/10 06:14:25;;;;;;;9.73;6.15;;;-9.60;58.90;;;;;;5051488;28;20064;-78
2022/03/10 06:16:50;;;;;;;6.53;4.43;;;-9.60;58.30;;;;;;5051534;28;20025;-80
2022/03/10 06:19:17;;;;;;;7.10;5.65;;;-9.50;58.20;;;;;;5052163;28;20037;-80
2022/03/10 06:21:43;;;;;;;10.00;4.82;;;-9.40;58.50;;;;;;5051409;28;20087;-79
2022/03/10 06:24:10;;;;;;;8.35;4.55;;;-9.40;58.40;;;;;;5051744;28;20029;-78
2022/03/10 06:26:36;;;;;;;6.63;4.20;;;-9.30;57.40;;;;;;5052641;28;20035;-79
2022/03/10 06:29:04;;;;;;;8.48;4.65;;;-9.30;57.40;;;;;;5054292;28;20037;-80
2022/03/10 06:31:31;;;;;;;3.25;2.20;;;-9.20;57.40;;;;;;5054959;28;20103;-78
2022/03/10 06:33:57;;;;;;;9.63;5.95;;;-9.20;56.50;;;;;;5058045;28;20040;-80
2022/03/10 06:36:27;;;;;;;8.20;4.05;;;-9.10;56.40;;;;;;5058489;28;20382;-80
2022/03/10 06:38:56;;;;;;;7.18;3.55;;;-9.10;56.70;;;;;;5075661;28;20033;-77
2022/03/10 06:41:22;;;;;;;8.80;5.15;;;-9.00;56.70;;;;;;5075057;28;20131;-79
2022/03/10 06:43:56;;;;;;;7.53;4.35;;;-9.00;56.70;;;;;;5058546;28;20024;-79
2022/03/10 06:46:22;;;;;;;6.85;4.22;;;-8.80;56.80;;;;;;5074138;28;20103;-79
2022/03/10 06:48:54;;;;;;;6.70;4.07;;;-8.80;56.50;;;;;;5073661;28;20043;-80
2022/03/10 06:51:20;;;;;;;14.80;5.55;;;-8.70;55.70;;;;;;5073456;28;20385;-79
2022/03/10 06:53:46;;;;;;;14.43;7.85;;;-8.60;54.80;;;;;;5073478;28;20020;-80
2022/03/10 06:56:12;;;;;;;8.05;3.88;;;-8.60;56.10;;;;;;5076254;28;20505;-81
2022/03/10 06:58:40;;;;;;;7.22;4.45;;;-8.60;54.50;;;;;;5095327;28;20186;-80
2022/03/10 07:01:09;;;;;;;9.13;4.97;;;-8.60;54.70;;;;;;5093876;28;20070;-77
2022/03/10 07:03:35;;;;;;;9.57;4.25;;;-8.60;55.60;;;;;;5096817;28;20028;-80
2022/03/10 07:06:01;;;;;;;8.70;5.00;;;-8.50;55.00;;;;;;5098076;28;20028;-82
2022/03/10 07:08:27;;;;;;;5.53;3.28;;;-8.40;55.00;;;;;;5079393;28;20448;-80
2022/03/10 07:10:53;;;;;;;8.88;4.20;;;-8.40;54.10;;;;;;5075560;28;20027;-82
2022/03/10 07:13:20;;;;;;;8.77;4.40;;;-8.40;54.40;;;;;;5062462;28;20044;-80
2022/03/10 07:15:46;;;;;;;13.75;5.78;;;-8.30;54.80;;;;;;5079280;28;20021;-81
2022/03/10 07:18:11;;;;;;;5.85;4.28;;;-8.20;54.40;;;;;;5077323;28;20565;-81
2022/03/10 07:20:37;;;;;;;15.90;4.22;;;-8.10;54.00;;;;;;5080344;28;20021;-84
2022/03/10 07:23:03;;;;;;;11.60;4.43;;;-8.00;53.80;;;;;;5072199;28;20040;-80
2022/03/10 07:25:29;;;;;;;5.75;5.25;;;-7.80;54.20;;;;;;5073038;28;20464;-82
2022/03/10 07:27:55;;;;;;;8.85;4.13;;;-7.70;54.00;;;;;;5054721;28;20663;-83
2022/03/10 07:30:20;;;;;;;8.55;3.72;;;-7.60;53.70;;;;;;5054366;28;20385;-81
2022/03/10 07:32:46;;;;;;;16.60;4.32;;;-7.50;53.60;;;;;;5072611;28;20024;-81
2022/03/10 07:35:12;;;;;;;15.98;4.80;;;-7.30;53.00;;;;;;5054434;28;20091;-81
2022/03/10 07:37:38;;;;;;;6.53;4.03;;;-7.20;52.60;;;;;;5071882;28;20059;-83
2022/03/10 07:40:04;;;;;;;11.70;3.72;;;-7.10;52.40;;;;;;5073261;28;20025;-82
2022/03/10 07:42:30;;;;;;;9.40;5.63;;;-6.90;52.30;;;;;;5055487;28;20028;-82
2022/03/10 07:44:56;;;;;;;7.57;3.45;;;-5.90;52.10;;;;;;5072487;28;20264;-83
2022/03/10 07:47:21;;;;;;;6.32;4.03;;;-3.80;52.10;;;;;;5073716;28;20556;-80
2022/03/10 07:49:47;;;;;;;3.65;2.35;;;-1.40;48.40;;;;;;5057062;28;20031;-81
2022/03/10 07:52:13;;;;;;;6.35;3.85;;;0.00;41.70;;;;;;5055611;28;20397;-83
2022/03/10 07:54:39;;;;;;;7.05;4.00;;;0.80;41.00;;;;;;5093143;28;20077;-81
2022/03/10 07:57:05;;;;;;;7.22;4.10;;;1.90;38.30;;;;;;5094525;28;20123;-80
2022/03/10 07:59:31;;;;;;;8.77;4.63;;;2.90;36.20;;;;;;5094045;28;20115;-83
2022/03/10 08:01:57;;;;;;;7.97;4.25;;;3.40;34.60;;;;;;5094238;28;20044;-83
2022/03/10 08:04:26;;;;;;;5.72;3.67;;;3.90;33.90;;;;;;5071856;28;20028;-84
2022/03/10 08:06:51;;;;;;;6.53;3.33;;;3.60;30.40;;;;;;5073537;28;20055;-81
2022/03/10 08:09:17;;;;;;;7.35;4.32;;;3.20;31.70;;;;;;5073207;28;20029;-84
2022/03/10 08:11:43;;;;;;;5.65;3.72;;;3.20;32.90;;;;;;5055436;28;20032;-84
2022/03/10 08:14:09;;;;;;;9.52;3.80;;;3.90;33.00;;;;;;5079414;28;20497;-82
2022/03/10 08:16:35;;;;;;;8.02;5.07;;;4.90;30.70;;;;;;5093600;28;20028;-85
2022/03/10 08:19:00;;;;;;;7.18;3.38;;;5.10;30.50;;;;;;5092162;28;20032;-83
2022/03/10 08:21:27;;;;;;;9.95;4.22;;;5.50;30.20;;;;;;5091341;28;20020;-81
2022/03/10 08:23:53;;;;;;;3.90;2.63;;;5.80;29.20;;;;;;5092760;28;20039;-80
2022/03/10 08:26:19;;;;;;;11.75;3.35;;;6.00;29.20;;;;;;5092042;28;20017;-81
2022/03/10 08:28:50;;;;;;;7.80;2.80;;;6.20;28.30;;;;;;5092877;28;20396;-83
2022/03/10 08:31:18;;;;;;;9.15;3.03;;;5.10;28.10;;;;;;5095068;28;20017;-81
2022/03/10 08:33:44;;;;;;;14.70;4.20;;;4.90;29.60;;;;;;5098514;28;20024;-82
2022/03/10 08:36:10;;;;;;;5.32;2.80;;;5.60;29.00;;;;;;5101052;28;20055;-83
2022/03/10 08:38:36;;;;;;;5.38;3.47;;;6.20;28.00;;;;;;5096336;28;20036;-82
2022/03/10 08:41:01;;;;;;;5.00;2.97;;;6.10;28.00;;;;;;5093121;28;20469;-82
2022/03/10 08:43:29;;;;;;;8.65;4.38;;;6.20;28.10;;;;;;5093531;28;20021;-85
2022/03/10 08:45:56;;;;;;;10.10;3.53;;;6.40;27.50;;;;;;5074452;28;20485;-84
2022/03/10 08:48:22;;;;;;;5.33;3.27;;;7.00;27.90;;;;;;5074727;28;20028;-82
2022/03/10 08:50:47;;;;;;;9.85;3.63;;;7.40;26.60;;;;;;5092607;28;20722;-84
2022/03/10 08:53:13;;;;;;;6.70;3.50;;;6.40;26.80;;;;;;5093600;28;20028;-82
2022/03/10 08:55:39;;;;;;;7.45;2.88;;;6.30;27.80;;;;;;5078020;28;20025;-81
2022/03/10 08:58:05;;;;;;;6.68;3.50;;;6.50;26.90;;;;;;5098069;28;20079;-82
2022/03/10 09:00:32;;;;;;;11.90;4.00;;;7.20;27.60;;;;;;5095910;28;20023;-81
2022/03/10 09:02:58;;;;;;;6.25;3.33;;;8.10;26.70;;;;;;5095863;28;20028;-83
2022/03/10 09:05:24;;;;;;;8.50;3.55;;;9.00;26.30;;;;;;5077506;28;20469;-82
2022/03/10 09:07:50;;;;;;;7.22;3.47;;;9.50;25.90;;;;;;5096203;28;20099;-82
2022/03/10 09:10:16;;;;;;;6.80;2.80;;;10.00;25.80;;;;;;5076979;28;20052;-83
2022/03/10 09:12:42;;;;;;;4.18;2.40;;;9.20;24.50;;;;;;5096016;28;20487;-82
2022/03/10 09:15:08;;;;;;;7.00;2.63;;;8.00;25.60;;;;;;5095890;28;20051;-84
2022/03/10 09:17:34;;;;;;;8.07;4.60;;;8.00;26.10;;;;;;5077478;28;20032;-84
2022/03/10 09:20:00;;;;;;;6.18;2.78;;;8.80;26.10;;;;;;5096122;28;20453;-82
2022/03/10 09:22:26;;;;;;;7.85;3.45;;;9.70;25.80;;;;;;5095798;28;20058;-84
2022/03/10 09:24:53;;;;;;;6.57;3.70;;;10.70;25.00;;;;;;5095595;28;20055;-83
2022/03/10 09:27:19;;;;;;;9.15;3.70;;;10.70;24.00;;;;;;5095216;28;20031;-82
2022/03/10 09:29:45;;;;;;;5.55;3.45;;;10.10;24.50;;;;;;5075105;28;20039;-82
2022/03/10 09:32:11;;;;;;;4.38;3.40;;;10.00;24.60;;;;;;5057369;28;20119;-83
2022/03/10 09:34:37;;;;;;;9.32;3.80;;;9.70;24.40;;;;;;5058875;28;20032;-82
2022/03/10 09:37:04;;;;;;;10.55;4.03;;;10.20;24.80;;;;;;5078635;28;20043;-80
2022/03/10 09:39:30;;;;;;;3.72;2.75;;;11.00;24.40;;;;;;5075935;28;20032;-84
2022/03/10 09:41:56;;;;;;;18.90;4.63;;;10.30;23.90;;;;;;5075793;28;20488;-81
2022/03/10 09:44:22;;;;;;;13.55;5.10;;;9.30;24.60;;;;;;5076144;28;20092;-82
2022/03/10 09:46:50;;;;;;;11.63;3.90;;;8.90;24.60;;;;;;5074303;28;20112;-81
2022/03/10 09:49:21;;;;;;;6.68;4.15;;;8.10;25.40;;;;;;5074496;28;20088;-82
2022/03/10 09:51:50;;;;;;;6.30;3.30;;;8.50;25.20;;;;;;5056766;28;20027;-81
2022/03/10 09:54:16;;;;;;;6.55;3.05;;;9.00;24.70;;;;;;5074443;28;20028;-82
2022/03/10 09:56:43;;;;;;;10.57;3.90;;;9.70;24.90;;;;;;5073938;28;20020;-82
2022/03/10 09:59:10;;;;;;;6.27;3.00;;;10.40;24.50;;;;;;5074813;28;20032;-82
2022/03/10 10:01:36;;;;;;;11.68;3.35;;;9.50;24.50;;;;;;5058147;28;20021;-83
2022/03/10 10:04:02;;;;;;;4.57;2.97;;;9.90;24.40;;;;;;5073870;28;20041;-83
2022/03/10 10:06:28;;;;;;;6.13;3.35;;;9.90;24.30;;;;;;5055954;28;20066;-82
2022/03/10 10:08:57;;;;;;;7.90;3.47;;;9.40;24.80;;;;;;5074472;28;20031;-83
2022/03/10 10:11:33;;;;;;;4.75;3.13;;;9.10;24.90;;;;;;5063773;28;20036;-84
2022/03/10 10:13:59;;;;;;;7.80;5.22;;;9.70;24.60;;;;;;5075780;28;20056;-82
2022/03/10 10:16:25;;;;;;;6.82;3.70;;;10.30;24.70;;;;;;5094110;28;20492;-82
2022/03/10 10:18:56;;;;;;;5.22;3.00;;;9.90;24.50;;;;;;5094412;28;20078;-83
2022/03/10 10:21:23;;;;;;;5.05;3.35;;;10.00;24.20;;;;;;5094548;28;20461;-82
2022/03/10 10:23:51;;;;;;;6.60;3.20;;;10.20;24.30;;;;;;5097564;28;20106;-80
2022/03/10 10:26:18;;;;;;;6.10;2.83;;;9.80;24.30;;;;;;5076247;28;20024;-85
2022/03/10 10:28:46;;;;;;;3.72;2.40;;;10.10;24.40;;;;;;5080969;28;20033;-82
2022/03/10 10:31:20;;;;;;;4.93;2.95;;;9.60;24.10;;;;;;5055969;28;20504;-82
2022/03/10 10:34:06;;;;;;;5.88;3.13;;;7.90;24.10;;;;;;5073733;28;20024;-82
2022/03/10 10:36:33;;;;;;;9.40;3.67;;;5.90;25.10;;;;;;5074075;28;20096;-81
2022/03/10 10:39:15;;;;;;;8.85;2.78;;;4.30;26.20;;;;;;5074848;28;20481;-82
2022/03/10 10:41:43;;;;;;;16.20;4.50;;;3.10;27.30;;;;;;5075836;28;20108;-82
2022/03/10 10:44:12;;;;;;;;;;;2.20;28.30;;;;;;5069625;28;20439;-82
2022/03/10 10:46:38;;;;;;;5.18;2.90;;;1.30;28.90;;;;;;5102486;28;20007;-83
2022/03/10 10:49:09;;;;;;;4.57;3.25;;;0.70;29.40;;;;;;5098736;28;20377;-81
2022/03/10 10:51:36;;;;;;;7.43;3.70;;;0.20;29.80;;;;;;5095261;28;20020;-82
2022/03/10 10:54:08;;;;;;;6.90;3.00;;;-0.10;30.40;;;;;;5093638;28;20473;-82
2022/03/10 10:56:35;;;;;;;8.48;4.22;;;-0.40;31.80;;;;;;5075527;28;20078;-82
2022/03/10 10:59:03;;;;;;;6.85;3.67;;;-0.90;32.30;;;;;;5098434;28;20098;-82
2022/03/10 11:01:31;;;;;;;7.95;3.75;;;-1.10;32.50;;;;;;5081712;28;20033;-82
2022/03/10 11:03:57;;;;;;;5.88;4.13;;;-1.20;32.60;;;;;;5079659;28;20074;-83
2022/03/10 11:06:24;;;;;;;7.13;3.35;;;-1.30;33.00;;;;;;5059098;28;20060;-81
2022/03/10 11:08:50;;;;;;;4.55;2.88;;;-1.50;34.50;;;;;;5055870;28;20029;-81
2022/03/10 11:11:18;;;;;;;8.50;3.40;;;-1.70;34.50;;;;;;5074130;28;20025;-83
2022/03/10 11:13:43;;;;;;;9.48;3.95;;;-1.80;34.30;;;;;;5077191;28;20044;-82
2022/03/10 11:16:11;;;;;;;4.47;2.33;;;-1.80;34.30;;;;;;5095446;28;20028;-82
2022/03/10 11:18:40;;;;;;;5.95;2.97;;;-1.80;34.70;;;;;;5081348;28;20518;-81
2022/03/10 11:21:20;;;;;;;11.57;4.45;;;-1.90;34.70;;;;;;5096460;28;20020;-81
2022/03/10 11:24:23;;;;;;;7.50;3.13;;;-1.90;34.70;;;;;;5094561;28;20074;-82
2022/03/10 11:26:55;;;;;;;7.03;2.90;;;-2.00;34.80;;;;;;5093331;28;20058;-81
2022/03/10 11:29:26;;;;;;;6.43;3.85;;;-2.10;35.60;;;;;;5093139;28;20016;-83
2022/03/10 11:31:55;;;;;;;6.75;3.25;;;-2.10;35.30;;;;;;5093343;28;20110;-80
2022/03/10 11:34:53;;;;;;;8.90;5.80;;;-2.10;35.20;;;;;;5097895;28;20043;-79
2022/03/10 11:37:43;;;;;;;5.63;3.67;;;-2.20;35.60;;;;;;5101208;28;20412;-82
2022/03/10 11:40:10;;;;;;;9.13;3.30;;;-2.20;35.70;;;;;;5077996;28;20028;-80
2022/03/10 11:42:39;;;;;;;8.65;2.92;;;-2.30;35.40;;;;;;5099781;28;20023;-81
2022/03/10 11:45:20;;;;;;;5.45;3.13;;;-2.30;36.40;;;;;;5103003;28;20087;-79
2022/03/10 11:47:47;;;;;;;5.88;3.05;;;-2.30;36.20;;;;;;5107717;28;20035;-78
2022/03/10 11:50:22;;;;;;;6.75;2.88;;;-2.20;36.60;;;;;;5081993;28;20032;-82
2022/03/10 11:53:05;;;;;;;5.40;2.70;;;-2.20;36.20;;;;;;5076590;28;20056;-81
2022/03/10 11:55:40;;;;;;;6.10;2.50;;;-2.20;35.80;;;;;;5094561;28;20546;-80
2022/03/10 11:58:08;;;;;;;9.63;3.67;;;-2.30;35.90;;;;;;5093339;28;20047;-81
2022/03/10 12:00:56;;;;;;;9.57;3.42;;;-2.40;36.20;;;;;;5092028;28;20074;-80
2022/03/10 12:03:35;;;;;;;8.48;3.03;;;-2.40;36.50;;;;;;5072974;28;20025;-82
2022/03/10 12:06:05;;;;;;;8.05;3.35;;;-2.30;36.70;;;;;;5075301;28;20043;-80
2022/03/10 12:08:35;;;;;;;8.10;3.35;;;-2.30;36.50;;;;;;5075924;28;20013;-81
2022/03/10 12:11:06;;;;;;;10.32;3.45;;;-2.40;36.60;;;;;;5072259;28;20158;-81
2022/03/10 12:13:34;;;;;;;4.00;2.90;;;-2.40;36.80;;;;;;5073159;28;20032;-81
2022/03/10 12:16:04;;;;;;;6.63;2.80;;;-2.50;36.80;;;;;;5092069;28;20024;-80
2022/03/10 12:18:43;;;;;;;8.45;2.78;;;-2.50;37.10;;;;;;5091803;28;20039;-82
2022/03/10 12:21:26;;;;;;;5.05;3.08;;;-2.50;36.90;;;;;;5055537;28;20438;-82
2022/03/10 12:23:57;;;;;;;7.85;2.85;;;-2.50;37.20;;;;;;5054874;28;20024;-81
2022/03/10 12:26:32;;;;;;;8.43;2.90;;;-2.50;37.60;;;;;;5072829;28;20028;-83
2022/03/10 12:29:07;;;;;;;6.22;2.70;;;-2.50;38.00;;;;;;5072106;28;20428;-82
2022/03/10 12:31:35;;;;;;;4.55;2.65;;;-2.50;37.70;;;;;;5072032;28;20032;-82
2022/03/10 12:34:05;;;;;;;5.65;2.97;;;-2.50;37.60;;;;;;5058129;28;20478;-79
2022/03/10 12:36:41;;;;;;;4.53;2.40;;;-2.40;38.00;;;;;;5078565;28;20186;-81
2022/03/10 12:39:10;;;;;;;10.55;3.05;;;-2.40;37.70;;;;;;5095930;28;20043;-81
2022/03/10 12:41:39;;;;;;;3.47;2.10;;;-2.50;37.90;;;;;;5078346;28;20023;-81
2022/03/10 12:44:07;;;;;;;7.13;2.97;;;-2.50;38.30;;;;;;5096148;28;20034;-84
2022/03/10 12:46:36;;;;;;;5.30;2.70;;;-2.40;38.90;;;;;;5077830;28;20083;-82
2022/03/10 12:49:18;;;;;;;6.00;2.47;;;-2.30;38.70;;;;;;5096417;28;20421;-83
2022/03/10 12:51:44;;;;;;;7.13;2.30;;;-2.20;38.70;;;;;;5079388;28;20053;-83